Time;durP1;ratioP1;P1;durP2;ratioP2;P2;SDS_P1;SDS_P2;PMS_P1;PMS_P2;Temp;Humidity;BMP_temperature;BMP_pressure;BME280_temperature;BME280_humidity;BME280_pressure;Samples;Min_cycle;Max_cycle;Signal;HPM_P1;HPM_P2
2022/04/19 00:00:45;;;;;;;;;;;;;;;;;;;;;
2022/04/19 00:01:56;;;;;;;0.57;0.57;;;;;;;8.54;48.10;96580.34;29395;202;63008;-63
2022/04/19 00:02:31;;;;;;;0.50;0.50;;;;;;;8.54;48.30;96571.44;29395;227;63005;-65
2022/04/19 00:03:03;;;;;;;0.50;0.50;;;;;;;8.51;48.33;96570.09;29395;234;63009;-63
2022/04/19 00:03:34;;;;;;;0.50;0.50;;;;;;;8.50;48.43;96573.91;29395;260;63005;-64
2022/04/19 00:04:16;;;;;;;0.50;0.50;;;;;;;8.49;48.16;96572.28;29395;200;63009;-64
2022/04/19 00:04:48;;;;;;;0.50;0.50;;;;;;;8.48;48.51;96567.97;29395;229;63005;-63
2022/04/19 00:05:22;;;;;;;0.50;0.50;;;;;;;8.48;48.52;96570.69;29394;204;64009;-58
2022/04/19 00:05:55;;;;;;;0.50;0.50;;;;;;;8.48;48.35;96567.97;29395;210;63005;-64
2022/04/19 00:06:27;;;;;;;0.50;0.50;;;;;;;8.48;48.57;96569.88;29394;225;64009;-65
2022/04/19 00:06:59;;;;;;;0.50;0.50;;;;;;;8.46;48.42;96572.88;29395;236;63004;-58
2022/04/19 00:07:36;;;;;;;0.60;0.60;;;;;;;8.44;48.43;96566.94;29394;220;64009;-58
2022/04/19 00:08:10;;;;;;;0.57;0.57;;;;;;;8.45;48.62;96571.25;29395;217;63004;-63
2022/04/19 00:08:42;;;;;;;0.50;0.50;;;;;;;8.45;48.54;96570.44;29395;246;63009;-63
2022/04/19 00:09:14;;;;;;;0.50;0.50;;;;;;;8.45;48.33;96568.56;29395;201;63009;-58
2022/04/19 00:09:47;;;;;;;0.50;0.50;;;;;;;8.45;48.26;96573.97;29395;239;63009;-64
2022/04/19 00:10:22;;;;;;;0.50;0.50;;;;;;;8.45;48.59;96568.56;29395;219;63005;-64
2022/04/19 00:10:55;;;;;;;0.50;0.50;;;;;;;8.46;48.46;96566.66;29395;202;63009;-64
2022/04/19 00:11:29;;;;;;;0.50;0.50;;;;;;;8.46;48.29;96566.66;29395;219;63005;-64
2022/04/19 00:12:01;;;;;;;0.60;0.60;;;;;;;8.47;48.41;96566.38;29394;219;64009;-62
2022/04/19 00:12:33;;;;;;;0.57;0.57;;;;;;;8.47;48.57;96563.66;29395;250;63005;-65
2022/04/19 00:13:07;;;;;;;0.50;0.50;;;;;;;8.48;48.48;96567.97;29395;229;63009;-58
2022/04/19 00:13:39;;;;;;;0.60;0.60;;;;;;;8.44;48.47;96561.53;29395;217;63004;-64
2022/04/19 00:14:11;;;;;;;0.60;0.60;;;;;;;8.48;48.37;96569.88;29395;209;63009;-64
2022/04/19 00:14:43;;;;;;;0.60;0.60;;;;;;;8.49;48.57;96564.19;29395;211;63004;-66
2022/04/19 00:15:15;;;;;;;0.60;0.60;;;;;;;8.49;48.35;96568.78;29395;232;63009;-64
2022/04/19 00:15:50;;;;;;;0.60;0.60;;;;;;;8.47;48.58;96566.38;29395;250;63004;-62
2022/04/19 00:16:22;;;;;;;0.50;0.50;;;;;;;8.46;48.61;96567.47;29394;263;64008;-63
2022/04/19 00:16:53;;;;;;;0.57;0.57;;;;;;;8.44;48.66;96564.22;29395;286;63004;-58
2022/04/19 00:17:25;;;;;;;0.50;0.50;;;;;;;8.43;48.56;96565.31;29395;204;63009;-63
2022/04/19 00:18:00;;;;;;;0.50;0.50;;;;;;;8.42;48.70;96569.13;29395;262;63005;-58
2022/04/19 00:18:32;;;;;;;0.50;0.50;;;;;;;8.42;48.75;96573.72;29395;254;63009;-63
2022/04/19 00:19:03;;;;;;;0.60;0.60;;;;;;;8.39;48.69;96562.38;29395;204;63005;-63
2022/04/19 00:19:34;;;;;;;0.50;0.50;;;;;;;8.38;48.85;96560.78;29395;202;63009;-65
2022/04/19 00:20:07;;;;;;;0.60;0.60;;;;;;;8.38;48.77;96568.06;29394;285;64005;-63
2022/04/19 00:20:40;;;;;;;0.50;0.50;;;;;;;8.38;48.70;96554.56;29395;218;63009;-64
2022/04/19 00:21:12;;;;;;;0.60;0.60;;;;;;;8.37;48.87;96561.06;29395;214;63004;-63
2022/04/19 00:21:44;;;;;;;0.60;0.60;;;;;;;8.35;48.69;96557.84;29395;231;63009;-63
2022/04/19 00:22:17;;;;;;;0.50;0.50;;;;;;;8.34;49.08;96558.94;29395;267;63004;-65
2022/04/19 00:22:52;;;;;;;0.57;0.57;;;;;;;8.32;48.88;96561.06;29395;220;63009;-64
2022/04/19 00:23:27;;;;;;;0.50;0.50;;;;;;;8.31;48.89;96548.69;29395;215;63004;-64
2022/04/19 00:23:58;;;;;;;0.50;0.50;;;;;;;8.29;48.75;96556.28;29395;215;63009;-64
2022/04/19 00:24:33;;;;;;;0.60;0.60;;;;;;;8.29;48.91;96550.88;29395;232;63012;-65
2022/04/19 00:25:06;;;;;;;0.60;0.60;;;;;;;8.29;49.11;96556.28;29395;282;63009;-66
2022/04/19 00:25:37;;;;;;;0.55;0.55;;;;;;;8.29;48.93;96550.88;29394;221;64005;-64
2022/04/19 00:26:09;;;;;;;0.55;0.55;;;;;;;8.28;49.22;96557.34;29395;197;63009;-63
2022/04/19 00:26:41;;;;;;;0.60;0.60;;;;;;;8.26;48.98;96554.13;29395;220;63010;-65
2022/04/19 00:27:13;;;;;;;0.60;0.60;;;;;;;8.27;49.24;96555.75;29395;230;63009;-60
2022/04/19 00:27:45;;;;;;;0.50;0.50;;;;;;;8.26;49.24;96557.66;29395;342;63005;-64
2022/04/19 00:28:17;;;;;;;0.60;0.60;;;;;;;8.25;49.04;96549.81;29395;219;63009;-63
2022/04/19 00:28:49;;;;;;;0.50;0.50;;;;;;;8.24;49.09;96548.22;29395;225;63004;-63
2022/04/19 00:29:20;;;;;;;0.50;0.50;;;;;;;8.25;49.33;96549.81;29394;222;64009;-58
2022/04/19 00:29:53;;;;;;;0.50;0.50;;;;;;;8.25;49.34;96549.81;29395;209;63004;-63
2022/04/19 00:30:28;;;;;;;0.60;0.60;;;;;;;8.26;49.15;96557.66;29395;202;63009;-66
2022/04/19 00:30:59;;;;;;;0.60;0.60;;;;;;;8.25;49.06;96544.41;29395;277;63004;-64
2022/04/19 00:31:31;;;;;;;0.60;0.60;;;;;;;8.25;49.03;96549.81;29395;239;63009;-63
2022/04/19 00:32:03;;;;;;;0.60;0.60;;;;;;;8.25;49.06;96542.53;29395;272;63005;-65
2022/04/19 00:32:35;;;;;;;0.50;0.50;;;;;;;8.25;49.02;96544.41;29395;261;63009;-60
2022/04/19 00:33:09;;;;;;;0.60;0.60;;;;;;;8.25;49.06;96547.13;29394;208;64005;-66
2022/04/19 00:33:44;;;;;;;0.50;0.50;;;;;;;8.25;49.21;96544.41;29395;243;63009;-58
2022/04/19 00:34:16;;;;;;;0.60;0.60;;;;;;;8.24;49.12;96542.81;29395;317;63005;-65
2022/04/19 00:34:47;;;;;;;0.60;0.60;;;;;;;8.23;49.24;96538.50;29395;220;63009;-58
2022/04/19 00:35:18;;;;;;;0.50;0.50;;;;;;;8.23;49.24;96539.28;29395;283;63005;-62
2022/04/19 00:35:50;;;;;;;0.50;0.50;;;;;;;8.23;49.22;96543.91;29395;203;63009;-64
2022/04/19 00:36:23;;;;;;;0.60;0.60;;;;;;;8.21;49.25;96543.38;29395;248;63004;-63
2022/04/19 00:36:54;;;;;;;0.50;0.50;;;;;;;8.21;49.38;96544.19;29394;217;64009;-66
2022/04/19 00:37:26;;;;;;;0.60;0.60;;;;;;;8.21;49.37;96544.19;29395;214;63004;-63
2022/04/19 00:37:59;;;;;;;0.50;0.50;;;;;;;8.21;49.41;96546.06;29395;306;63009;-65
2022/04/19 00:38:30;;;;;;;0.50;0.50;;;;;;;8.21;49.53;96546.06;29395;208;63004;-64
2022/04/19 00:39:02;;;;;;;0.50;0.50;;;;;;;8.21;49.31;96543.38;29396;196;63008;-65
2022/04/19 00:39:34;;;;;;;0.50;0.50;;;;;;;8.20;49.39;96544.47;29394;225;64005;-64
2022/04/19 00:40:07;;;;;;;0.50;0.50;;;;;;;8.19;49.46;96548.25;29395;209;63009;-58
2022/04/19 00:40:39;;;;;;;0.57;0.57;;;;;;;8.16;49.41;96541.53;29394;345;64005;-64
2022/04/19 00:41:11;;;;;;;0.50;0.50;;;;;;;8.15;49.49;96536.41;29395;259;63009;-64
2022/04/19 00:41:43;;;;;;;0.50;0.50;;;;;;;8.14;49.52;96537.50;29395;275;63005;-63
2022/04/19 00:42:17;;;;;;;0.50;0.50;;;;;;;8.13;49.57;96541.28;29395;219;63009;-59
2022/04/19 00:42:49;;;;;;;0.50;0.50;;;;;;;8.11;49.73;96543.47;29395;341;63005;-64
2022/04/19 00:43:21;;;;;;;0.50;0.50;;;;;;;8.08;50.16;96544.84;29395;199;63009;-60
2022/04/19 00:43:53;;;;;;;0.50;0.50;;;;;;;8.03;50.27;96534.88;29395;236;63004;-60
2022/04/19 00:44:24;;;;;;;0.50;0.50;;;;;;;8.01;50.01;96538.97;29395;254;63009;-64
2022/04/19 00:44:57;;;;;;;0.50;0.50;;;;;;;7.99;50.69;96541.13;29395;203;63009;-64
2022/04/19 00:45:31;;;;;;;0.60;0.60;;;;;;;7.97;50.32;96543.34;29395;271;63009;-65
2022/04/19 00:46:03;;;;;;;0.55;0.55;;;;;;;7.94;50.25;96544.72;29394;233;64004;-65
2022/04/19 00:46:34;;;;;;;0.50;0.50;;;;;;;7.93;50.69;96537.69;29395;245;63008;-59
2022/04/19 00:47:09;;;;;;;0.60;0.60;;;;;;;7.91;50.71;96542.59;29395;312;63018;-64
2022/04/19 00:47:40;;;;;;;0.50;0.50;;;;;;;7.90;50.68;96537.47;29395;214;63009;-64
2022/04/19 00:48:11;;;;;;;0.50;0.50;;;;;;;7.87;50.87;96544.22;29395;228;63005;-65
2022/04/19 00:48:43;;;;;;;0.50;0.50;;;;;;;7.86;50.60;96542.63;29395;214;63009;-59
2022/04/19 00:49:17;;;;;;;0.50;0.50;;;;;;;7.85;50.87;96538.31;29395;212;63005;-59
2022/04/19 00:49:52;;;;;;;0.60;0.60;;;;;;;7.86;50.85;96541.81;29394;208;64009;-64
2022/04/19 00:50:24;;;;;;;0.60;0.60;;;;;;;7.85;50.93;96541.00;29395;297;63005;-64
2022/04/19 00:50:56;;;;;;;0.50;0.50;;;;;;;7.85;50.70;96541.00;29395;210;63009;-59
2022/04/19 00:51:29;;;;;;;0.57;0.57;;;;;;;7.84;50.70;96535.88;29395;263;63004;-60
2022/04/19 00:52:01;;;;;;;0.50;0.50;;;;;;;7.84;50.67;96534.00;29394;223;64009;-64
2022/04/19 00:52:35;;;;;;;0.50;0.50;;;;;;;7.82;50.84;96536.16;29395;236;63004;-64
2022/04/19 00:53:09;;;;;;;0.50;0.50;;;;;;;7.84;50.71;96538.59;29395;214;63009;-64
2022/04/19 00:53:42;;;;;;;0.50;0.50;;;;;;;7.83;50.93;96537.78;29395;196;63004;-59
2022/04/19 00:54:17;;;;;;;0.50;0.50;;;;;;;7.82;50.87;96536.16;29395;208;63009;-58
2022/04/19 00:54:50;;;;;;;0.50;0.50;;;;;;;7.81;51.10;96534.56;29395;240;63005;-66
2022/04/19 00:55:24;;;;;;;0.50;0.50;;;;;;;7.80;50.92;96538.34;29395;240;63009;-64
2022/04/19 00:55:57;;;;;;;0.50;0.50;;;;;;;7.79;51.22;96536.72;29395;210;63005;-62
2022/04/19 00:56:31;;;;;;;0.50;0.50;;;;;;;7.78;51.54;96539.72;29395;205;63009;-63
2022/04/19 00:57:04;;;;;;;0.60;0.60;;;;;;;7.76;51.24;96537.31;29394;216;64005;-64
2022/04/19 00:57:41;;;;;;;0.50;0.50;;;;;;;7.76;51.37;96540.00;29395;275;63009;-64
2022/04/19 00:58:15;;;;;;;0.50;0.50;;;;;;;7.74;51.48;96534.88;29395;281;63004;-62
2022/04/19 00:58:47;;;;;;;0.57;0.57;;;;;;;7.73;51.30;96540.56;29395;202;63009;-63
2022/04/19 00:59:22;;;;;;;0.60;0.60;;;;;;;7.74;51.71;96534.06;29395;259;63004;-63
2022/04/19 00:59:54;;;;;;;0.50;0.50;;;;;;;7.72;51.49;96537.06;29394;226;64009;-63
2022/04/19 01:00:25;;;;;;;0.60;0.60;;;;;;;7.71;51.42;96531.94;29395;227;63004;-63
2022/04/19 01:01:01;;;;;;;0.50;0.50;;;;;;;7.70;51.78;96533.03;29395;196;63008;-63
2022/04/19 01:01:33;;;;;;;0.50;0.50;;;;;;;7.69;51.89;96536.81;29395;218;63004;-63
2022/04/19 01:02:07;;;;;;;0.50;0.50;;;;;;;7.69;51.56;96534.09;29395;251;63009;-59
2022/04/19 01:02:40;;;;;;;0.50;0.50;;;;;;;7.68;51.70;96529.81;29395;239;63005;-63
2022/04/19 01:03:11;;;;;;;0.55;0.55;;;;;;;7.66;51.55;96538.19;29395;219;63009;-63
2022/04/19 01:03:44;;;;;;;0.60;0.60;;;;;;;7.65;51.64;96527.66;29395;197;63005;-63
2022/04/19 01:04:15;;;;;;;0.50;0.50;;;;;;;7.65;51.84;96535.75;29395;220;63009;-63
2022/04/19 01:04:48;;;;;;;0.60;0.60;;;;;;;7.63;51.68;96529.84;29395;214;63005;-63
2022/04/19 01:05:20;;;;;;;0.50;0.50;;;;;;;7.61;51.80;96529.34;29394;197;64009;-64
2022/04/19 01:05:53;;;;;;;0.60;0.60;;;;;;;7.61;51.96;96532.03;29395;214;63004;-65
2022/04/19 01:06:25;;;;;;;0.50;0.50;;;;;;;7.60;51.69;96523.13;29395;236;63009;-63
2022/04/19 01:06:58;;;;;;;0.60;0.60;;;;;;;7.59;51.71;96526.13;29395;199;63004;-63
2022/04/19 01:07:29;;;;;;;0.60;0.60;;;;;;;7.59;51.88;96523.41;29395;236;63009;-62
2022/04/19 01:08:00;;;;;;;0.50;0.50;;;;;;;7.58;52.00;96524.50;29395;202;63004;-62
2022/04/19 01:08:33;;;;;;;0.52;0.52;;;;;;;7.57;51.64;96523.69;29395;230;63009;-63
2022/04/19 01:09:05;;;;;;;0.50;0.50;;;;;;;7.57;51.77;96529.09;29395;230;63009;-63
2022/04/19 01:09:36;;;;;;;0.50;0.50;;;;;;;7.57;51.98;96528.28;29395;215;63009;-65
2022/04/19 01:10:08;;;;;;;0.60;0.60;;;;;;;7.56;51.96;96526.69;29395;222;63005;-63
2022/04/19 01:10:43;;;;;;;0.50;0.50;;;;;;;7.56;51.74;96523.97;29394;298;64009;-63
2022/04/19 01:13:46;;;;;;;0.60;0.60;;;;;;;7.58;51.79;96521.81;29395;264;63009;-63
2022/04/19 01:14:20;;;;;;;0.50;0.50;;;;;;;7.58;51.89;96519.09;29395;205;63000;-63
2022/04/19 01:14:51;;;;;;;0.50;0.50;;;;;;;7.57;51.73;96515.59;29395;238;63009;-62
2022/04/19 01:15:22;;;;;;;0.60;0.60;;;;;;;7.58;51.73;96524.50;29395;278;63004;-63
2022/04/19 01:15:54;;;;;;;0.50;0.50;;;;;;;7.57;51.60;96521.00;29394;244;64008;-64
2022/04/19 01:16:26;;;;;;;0.50;0.50;;;;;;;7.58;51.82;96524.50;29395;218;63005;-66
2022/04/19 01:16:58;;;;;;;0.50;0.50;;;;;;;7.58;51.50;96519.09;29395;215;63009;-63
2022/04/19 01:17:30;;;;;;;0.50;0.50;;;;;;;7.58;51.58;96513.69;29395;202;63005;-59
2022/04/19 01:18:02;;;;;;;0.50;0.50;;;;;;;7.58;51.46;96521.81;29395;197;63009;-57
2022/04/19 01:18:33;;;;;;;0.60;0.60;;;;;;;7.57;51.69;96518.28;29395;250;63005;-65
2022/04/19 01:19:08;;;;;;;0.50;0.50;;;;;;;7.57;51.96;96523.69;29395;210;63009;-63
2022/04/19 01:19:40;;;;;;;0.50;0.50;;;;;;;7.54;52.40;96521.56;29395;208;63005;-64
2022/04/19 01:20:14;;;;;;;0.50;0.50;;;;;;;7.54;51.72;96518.06;29395;204;63009;-63
2022/04/19 01:20:48;;;;;;;0.60;0.60;;;;;;;7.52;52.17;96521.03;29395;233;63012;-63
2022/04/19 01:21:20;;;;;;;0.60;0.60;;;;;;;7.52;51.89;96525.63;29394;214;64009;-63
2022/04/19 01:21:57;;;;;;;0.60;0.60;;;;;;;7.52;52.18;96514.81;29394;220;64004;-63
2022/04/19 01:22:37;;;;;;;0.60;0.60;;;;;;;7.51;52.06;96518.63;29395;245;63009;-64
2022/04/19 01:23:08;;;;;;;0.57;0.57;;;;;;;7.52;52.05;96514.81;29395;213;63004;-58
2022/04/19 01:23:39;;;;;;;0.60;0.60;;;;;;;7.50;51.86;96517.81;29394;219;64009;-64
2022/04/19 01:24:18;;;;;;;0.60;0.60;;;;;;;7.49;52.02;96516.19;29395;221;63005;-65
2022/04/19 01:24:49;;;;;;;0.60;0.60;;;;;;;7.47;52.25;96518.37;29395;222;63009;-63
2022/04/19 01:25:20;;;;;;;0.60;0.60;;;;;;;7.46;52.11;96516.75;29395;239;63005;-64
2022/04/19 01:25:52;;;;;;;0.60;0.60;;;;;;;7.46;52.19;96515.94;29395;239;63009;-58
2022/04/19 01:26:23;;;;;;;0.60;0.60;;;;;;;7.44;52.28;96513.53;29394;223;64005;-63
2022/04/19 01:26:58;;;;;;;0.52;0.52;;;;;;;7.43;52.28;96511.91;29395;260;63009;-57
2022/04/19 01:27:30;;;;;;;0.60;0.60;;;;;;;7.42;52.24;96515.69;29395;239;63005;-57
2022/04/19 01:28:01;;;;;;;0.60;0.60;;;;;;;7.40;52.18;96507.88;29395;283;63009;-62
2022/04/19 01:28:34;;;;;;;0.60;0.60;;;;;;;7.39;52.53;96508.97;29394;204;64004;-63
2022/04/19 01:29:05;;;;;;;0.60;0.60;;;;;;;7.40;52.55;96513.28;29395;202;63013;-59
2022/04/19 01:29:37;;;;;;;0.60;0.60;;;;;;;7.39;52.66;96517.06;29395;203;63008;-58
2022/04/19 01:30:13;;;;;;;0.50;0.50;;;;;;;7.39;52.54;96516.25;29394;206;64009;-58
2022/04/19 01:30:44;;;;;;;0.60;0.60;;;;;;;7.38;52.71;96510.06;29395;238;63004;-63
2022/04/19 01:31:16;;;;;;;0.60;0.60;;;;;;;7.38;52.67;96520.84;29395;221;63009;-63
2022/04/19 01:31:48;;;;;;;0.60;0.60;;;;;;;7.36;52.70;96512.22;29395;220;63011;-62
2022/04/19 01:32:20;;;;;;;0.60;0.60;;;;;;;7.36;52.56;96516.81;29395;237;63009;-63
2022/04/19 01:32:52;;;;;;;0.60;0.60;;;;;;;7.33;52.94;96515.50;29395;231;63005;-63
2022/04/19 01:33:24;;;;;;;0.60;0.60;;;;;;;7.31;53.29;96514.16;29395;273;63009;-58
2022/04/19 01:33:56;;;;;;;0.50;0.50;;;;;;;7.29;52.81;96511.75;29373;291;63005;-59
2022/04/19 01:34:28;;;;;;;0.60;0.60;;;;;;;7.28;52.95;96518.22;29395;217;63009;-63
2022/04/19 01:35:20;;;;;;;0.60;0.60;;;;;;;7.26;53.15;96515.03;29395;207;63000;-62
2022/04/19 01:35:51;;;;;;;0.60;0.60;;;;;;;7.25;52.92;96515.31;29416;223;64009;-58
2022/04/19 01:36:24;;;;;;;0.60;0.60;;;;;;;7.24;53.08;96514.50;29394;218;64004;-63
2022/04/19 01:36:56;;;;;;;0.50;0.50;;;;;;;7.22;53.01;96519.38;29395;203;63009;-64
2022/04/19 01:37:27;;;;;;;0.60;0.60;;;;;;;7.20;53.44;96510.75;29373;202;63004;-63
2022/04/19 01:38:02;;;;;;;0.60;0.60;;;;;;;7.19;53.03;96511.84;29395;209;63008;-58
2022/04/19 01:38:34;;;;;;;0.50;0.50;;;;;;;7.19;53.19;96505.63;29395;227;63004;-58
2022/04/19 01:39:10;;;;;;;0.60;0.60;;;;;;;7.19;53.35;96511.03;29395;209;63009;-64
2022/04/19 01:40:32;;;;;;;0.60;0.60;;;;;;;7.19;53.27;96505.63;29394;315;64009;-58
2022/04/19 01:41:03;;;;;;;0.60;0.60;;;;;;;7.18;53.41;96512.91;29395;314;63005;-58
2022/04/19 01:41:36;;;;;;;0.50;0.50;;;;;;;7.18;53.08;96504.81;29373;231;63009;-63
2022/04/19 01:42:08;;;;;;;0.50;0.50;;;;;;;7.19;53.31;96505.63;29395;245;63005;-63
2022/04/19 01:42:40;;;;;;;0.60;0.60;;;;;;;7.19;53.19;96502.94;29395;206;63009;-57
2022/04/19 01:43:13;;;;;;;0.60;0.60;;;;;;;7.18;53.18;96504.81;29395;256;63004;-62
2022/04/19 01:43:44;;;;;;;0.60;0.60;;;;;;;7.17;52.97;96508.59;29371;236;64009;-63
2022/04/19 01:44:16;;;;;;;0.60;0.60;;;;;;;7.18;53.05;96509.41;29395;223;63004;-59
2022/04/19 01:44:47;;;;;;;0.60;0.60;;;;;;;7.18;53.53;96504.00;29395;208;63009;-64
2022/04/19 01:45:22;;;;;;;0.50;0.50;;;;;;;7.15;53.68;96505.38;29395;202;63004;-58
2022/04/19 01:45:54;;;;;;;0.60;0.60;;;;;;;7.15;53.47;96502.69;29395;243;63008;-65
2022/04/19 01:46:29;;;;;;;0.60;0.60;;;;;;;7.16;53.33;96512.38;29394;205;64012;-62
2022/04/19 01:47:02;;;;;;;0.60;0.60;;;;;;;7.15;53.30;96501.87;29395;211;63009;-58
2022/04/19 01:47:34;;;;;;;0.60;0.60;;;;;;;7.15;53.41;96504.56;29395;216;63005;-65
2022/04/19 01:48:07;;;;;;;0.60;0.60;;;;;;;7.14;53.39;96501.06;29395;268;63009;-65
2022/04/19 01:48:38;;;;;;;0.60;0.60;;;;;;;7.13;53.71;96501.34;29395;227;63005;-59
2022/04/19 01:49:12;;;;;;;0.85;0.85;;;;;;;7.12;53.96;96499.72;29395;252;63009;-63
2022/04/19 01:49:43;;;;;;;0.60;0.60;;;;;;;7.11;53.62;96498.12;29395;233;63005;-64
2022/04/19 01:50:17;;;;;;;0.60;0.60;;;;;;;7.12;53.78;96503.25;29395;236;63016;-59
2022/04/19 01:50:49;;;;;;;0.60;0.60;;;;;;;7.11;53.80;96498.94;29394;246;64004;-64
2022/04/19 01:51:21;;;;;;;0.52;0.52;;;;;;;7.10;53.79;96497.31;29394;225;64009;-63
2022/04/19 01:51:52;;;;;;;0.50;0.50;;;;;;;7.10;53.72;96497.31;29395;238;63004;-62
2022/04/19 01:52:24;;;;;;;0.60;0.60;;;;;;;7.10;53.86;96497.31;29395;198;63009;-59
2022/04/19 01:52:57;;;;;;;0.50;0.50;;;;;;;7.11;53.77;96498.12;29395;230;63004;-59
2022/04/19 01:53:29;;;;;;;0.50;0.50;;;;;;;7.12;53.59;96497.03;29394;237;64008;-64
2022/04/19 01:54:00;;;;;;;0.60;0.60;;;;;;;7.12;53.73;96497.84;29373;205;63005;-65
2022/04/19 01:54:33;;;;;;;0.55;0.55;;;;;;;7.12;53.73;96495.16;29373;233;63009;-57
2022/04/19 01:55:07;;;;;;;0.60;0.60;;;;;;;7.11;53.50;96488.13;29395;247;63005;-62
2022/04/19 01:55:38;;;;;;;0.50;0.50;;;;;;;7.13;53.63;96491.38;29373;238;63009;-64
2022/04/19 01:56:10;;;;;;;0.60;0.60;;;;;;;7.14;53.60;96492.16;29394;225;64015;-58
2022/04/19 01:56:43;;;;;;;0.60;0.60;;;;;;;7.14;53.82;96489.47;29395;202;63009;-58
2022/04/19 01:57:14;;;;;;;0.60;0.60;;;;;;;7.15;53.56;96491.09;29373;223;63005;-63
2022/04/19 01:57:47;;;;;;;0.60;0.60;;;;;;;7.14;53.44;96484.88;29395;275;63009;-58
2022/04/19 01:58:19;;;;;;;0.50;0.50;;;;;;;7.13;53.49;96488.66;29395;198;63004;-63
2022/04/19 01:58:54;;;;;;;0.50;0.50;;;;;;;7.14;53.73;96489.47;29395;237;63009;-58
2022/04/19 01:59:25;;;;;;;0.60;0.60;;;;;;;7.12;53.63;96489.75;29395;227;63004;-64
2022/04/19 01:59:56;;;;;;;0.60;0.60;;;;;;;7.13;53.58;96485.97;29395;244;63009;-64
2022/04/19 02:00:31;;;;;;;0.60;0.60;;;;;;;7.11;53.82;96482.75;29395;233;63004;-65
2022/04/19 02:01:02;;;;;;;0.60;0.60;;;;;;;7.07;54.36;96482.50;29373;225;63008;-64
2022/04/19 02:01:33;;;;;;;0.60;0.60;;;;;;;7.06;53.87;96486.28;29371;331;64005;-64
2022/04/19 02:02:04;;;;;;;0.60;0.60;;;;;;;7.05;54.14;96492.75;29373;197;63009;-62
2022/04/19 02:02:35;;;;;;;0.60;0.60;;;;;;;7.02;54.06;96485.22;29373;234;63005;-63
2022/04/19 02:03:06;;;;;;;0.60;0.60;;;;;;;7.01;54.15;96493.59;29373;291;63009;-64
2022/04/19 02:03:37;;;;;;;0.60;0.60;;;;;;;6.99;54.13;96496.56;29373;303;63005;-64
2022/04/19 02:04:09;;;;;;;0.60;0.60;;;;;;;6.98;54.13;96486.06;29373;197;63009;-63
2022/04/19 02:04:40;;;;;;;0.60;0.60;;;;;;;6.98;54.15;96494.16;29373;325;63004;-63
2022/04/19 02:05:13;;;;;;;0.60;0.60;;;;;;;6.98;54.18;96494.16;29395;260;63009;-62
2022/04/19 02:05:44;;;;;;;0.60;0.60;;;;;;;6.98;54.24;96484.16;29373;205;63004;-63
2022/04/19 02:06:20;;;;;;;0.50;0.50;;;;;;;7.00;54.20;96491.97;29371;244;64009;-64
2022/04/19 02:06:52;;;;;;;0.60;0.60;;;;;;;7.00;54.08;96486.59;29395;246;63004;-65
2022/04/19 02:07:23;;;;;;;0.50;0.50;;;;;;;7.01;54.12;96491.69;29373;202;63008;-58
2022/04/19 02:07:57;;;;;;;0.50;0.50;;;;;;;7.02;54.02;96496.00;29372;374;63004;-62
2022/04/19 02:08:29;;;;;;;0.60;0.60;;;;;;;7.01;53.94;96489.00;29373;274;63008;-63
2022/04/19 02:09:03;;;;;;;0.60;0.60;;;;;;;7.01;54.01;96489.00;29373;260;63005;-65
2022/04/19 02:09:34;;;;;;;0.60;0.60;;;;;;;7.02;53.84;96492.50;29395;245;63009;-63
2022/04/19 02:10:08;;;;;;;0.50;0.50;;;;;;;7.01;53.77;96493.59;29373;197;63005;-65
2022/04/19 02:10:39;;;;;;;0.60;0.60;;;;;;;7.02;54.19;96492.50;29395;318;63009;-58
2022/04/19 02:11:10;;;;;;;0.50;0.50;;;;;;;7.03;54.00;96491.41;29373;291;63009;-64
2022/04/19 02:11:43;;;;;;;0.50;0.50;;;;;;;7.02;53.92;96495.19;29371;202;64009;-65
2022/04/19 02:12:17;;;;;;;0.50;0.50;;;;;;;7.04;54.06;96490.34;29373;233;63004;-59
2022/04/19 02:12:51;;;;;;;0.50;0.50;;;;;;;7.04;53.93;96495.72;29395;204;63019;-64
2022/04/19 02:13:25;;;;;;;0.60;0.60;;;;;;;7.05;54.00;96489.25;29373;199;63004;-63
2022/04/19 02:13:56;;;;;;;0.60;0.60;;;;;;;7.05;53.94;96491.94;29373;239;63009;-64
2022/04/19 02:14:28;;;;;;;0.60;0.60;;;;;;;7.06;53.94;96488.16;29395;223;63004;-63
2022/04/19 02:15:00;;;;;;;0.60;0.60;;;;;;;7.07;53.66;96497.88;29373;276;63008;-64
2022/04/19 02:15:31;;;;;;;0.50;0.50;;;;;;;7.06;53.91;96493.56;29373;245;63005;-67
2022/04/19 02:16:05;;;;;;;0.52;0.52;;;;;;;7.07;53.97;96490.59;29373;200;63018;-64
2022/04/19 02:16:38;;;;;;;0.50;0.50;;;;;;;7.07;53.98;96497.88;29395;254;63005;-65
2022/04/19 02:17:11;;;;;;;0.50;0.50;;;;;;;7.07;53.62;96484.38;29371;251;64009;-64
2022/04/19 02:17:47;;;;;;;0.60;0.60;;;;;;;7.06;53.98;96490.88;29395;250;63005;-66
2022/04/19 02:18:20;;;;;;;0.57;0.57;;;;;;;7.05;53.81;96481.97;29373;218;63009;-58
2022/04/19 02:18:52;;;;;;;0.60;0.60;;;;;;;7.04;53.96;96493.03;29373;257;63005;-59
2022/04/19 02:19:24;;;;;;;0.60;0.60;;;;;;;7.03;53.74;96486.84;29373;299;63009;-58
2022/04/19 02:19:59;;;;;;;0.60;0.60;;;;;;;7.02;53.82;96490.62;29373;197;63010;-58
2022/04/19 02:20:32;;;;;;;0.60;0.60;;;;;;;7.03;53.94;96486.84;29373;278;63009;-58
2022/04/19 02:21:03;;;;;;;0.60;0.60;;;;;;;7.04;53.70;96487.63;29373;204;63004;-59
2022/04/19 02:21:38;;;;;;;0.60;0.60;;;;;;;7.03;53.87;96480.63;29373;283;63016;-58
2022/04/19 02:22:11;;;;;;;0.50;0.50;;;;;;;7.04;53.87;96490.34;29395;276;63009;-64
2022/04/19 02:22:43;;;;;;;0.60;0.60;;;;;;;7.02;53.79;96484.41;29394;218;64008;-65
2022/04/19 02:23:14;;;;;;;0.60;0.60;;;;;;;7.02;53.74;96489.81;29395;242;63005;-64
2022/04/19 02:23:45;;;;;;;0.60;0.60;;;;;;;7.01;53.85;96483.59;29395;237;63009;-64
2022/04/19 02:24:17;;;;;;;0.50;0.50;;;;;;;7.01;54.28;96483.59;29395;242;63005;-60
2022/04/19 02:24:48;;;;;;;0.55;0.55;;;;;;;7.00;54.20;96487.37;29373;331;63009;-63
2022/04/19 02:25:19;;;;;;;0.52;0.52;;;;;;;6.99;54.10;96484.97;29395;215;63005;-59
2022/04/19 02:25:52;;;;;;;0.60;0.60;;;;;;;6.99;54.18;96490.38;29373;324;63009;-59
2022/04/19 02:26:23;;;;;;;0.57;0.57;;;;;;;6.98;54.01;96486.84;29373;266;63005;-58
2022/04/19 02:26:55;;;;;;;0.60;0.60;;;;;;;6.99;53.82;96487.66;29395;251;63009;-64
2022/04/19 02:27:28;;;;;;;0.60;0.60;;;;;;;6.99;54.21;96488.47;29395;197;63004;-58
2022/04/19 02:27:59;;;;;;;0.60;0.60;;;;;;;7.00;53.90;96484.69;29371;256;64009;-64
2022/04/19 02:28:31;;;;;;;0.60;0.60;;;;;;;6.99;53.87;96485.78;29373;298;63004;-58
2022/04/19 02:29:02;;;;;;;0.60;0.60;;;;;;;7.01;53.90;96488.19;29373;226;63009;-64
2022/04/19 02:29:38;;;;;;;0.60;0.60;;;;;;;7.02;53.83;96487.09;29395;260;63000;-58
2022/04/19 02:30:15;;;;;;;0.50;0.50;;;;;;;7.02;53.67;96484.41;29395;197;63018;-58
2022/04/19 02:30:46;;;;;;;0.60;0.60;;;;;;;7.04;53.56;96483.06;29373;198;63005;-64
2022/04/19 02:31:17;;;;;;;0.60;0.60;;;;;;;7.04;53.50;96483.06;29373;224;63009;-59
2022/04/19 02:31:49;;;;;;;0.60;0.60;;;;;;;7.04;53.66;96485.75;29395;259;63005;-67
2022/04/19 02:32:20;;;;;;;0.60;0.60;;;;;;;7.04;53.58;96483.06;29373;303;63009;-65
2022/04/19 02:32:52;;;;;;;0.50;0.50;;;;;;;7.05;53.65;96487.34;29373;225;63005;-64
2022/04/19 02:33:23;;;;;;;0.60;0.60;;;;;;;7.05;53.55;96481.16;29371;304;64023;-59
2022/04/19 02:33:56;;;;;;;0.60;0.60;;;;;;;7.06;53.65;96474.69;29373;279;63005;-58
2022/04/19 02:34:29;;;;;;;0.60;0.60;;;;;;;7.07;53.38;96477.09;29373;249;63009;-59
2022/04/19 02:35:00;;;;;;;0.60;0.60;;;;;;;7.09;53.15;96479.50;29373;248;63004;-58
2022/04/19 02:35:31;;;;;;;0.60;0.60;;;;;;;7.09;53.11;96479.50;29373;250;63009;-64
2022/04/19 02:36:03;;;;;;;0.60;0.60;;;;;;;7.12;53.22;96472.75;29373;215;63007;-64
2022/04/19 02:36:35;;;;;;;0.60;0.60;;;;;;;7.12;53.37;96478.97;29373;215;63009;-66
2022/04/19 02:37:06;;;;;;;0.60;0.60;;;;;;;7.13;53.21;96479.75;29373;211;63004;-64
2022/04/19 02:37:38;;;;;;;0.60;0.60;;;;;;;7.14;53.40;96482.19;29395;246;63008;-65
2022/04/19 02:38:10;;;;;;;0.60;0.60;;;;;;;7.16;53.25;96474.63;29373;257;63005;-63
2022/04/19 02:38:44;;;;;;;0.60;0.60;;;;;;;7.18;52.81;96472.44;29371;247;64009;-64
2022/04/19 02:39:16;;;;;;;0.60;0.60;;;;;;;7.18;52.63;96472.44;29373;226;63005;-64
2022/04/19 02:39:48;;;;;;;0.60;0.60;;;;;;;7.20;52.47;96474.84;29395;284;63009;-65
2022/04/19 02:40:23;;;;;;;0.60;0.60;;;;;;;7.20;52.64;96470.28;29373;262;63005;-59
2022/04/19 02:40:54;;;;;;;0.60;0.60;;;;;;;7.22;52.54;96473.50;29373;336;63009;-57
2022/04/19 02:41:26;;;;;;;0.60;0.60;;;;;;;7.23;52.79;96471.59;29373;295;63005;-58
2022/04/19 02:41:58;;;;;;;0.60;0.60;;;;;;;7.22;52.66;96473.50;29373;236;63009;-62